Time;durP1;ratioP1;P1;durP2;ratioP2;P2;SDS_P1;SDS_P2;PMS_P1;PMS_P2;Temp;Humidity;BMP_temperature;BMP_pressure;BME280_temperature;BME280_humidity;BME280_pressure;Samples;Min_cycle;Max_cycle;Signal;HPM_P1;HPM_P2
2022/09/20 00:01:31;;;;;;;;;7.33;5.33;;;;;17.54;54.57;98183.47;4971492;28;103712;-85
2022/09/20 00:04:00;;;;;;;;;7.67;7.00;;;;;17.57;54.90;98184.84;4970052;28;101994;-85
2022/09/20 00:06:28;;;;;;;;;6.00;5.33;;;;;17.58;54.08;98186.50;4967962;28;103124;-84
2022/09/20 00:08:55;;;;;;;;;7.67;7.00;;;;;17.58;54.19;98201.03;4973701;28;102113;-85
2022/09/20 00:11:24;;;;;;;;;6.33;6.00;;;;;17.58;54.83;98198.28;4975979;28;103718;-85
2022/09/20 00:13:53;;;;;;;;;6.00;5.00;;;;;17.56;54.65;98188.69;4980020;28;103324;-85
2022/09/20 00:16:39;;;;;;;;;4.33;4.33;;;;;17.59;54.34;98194.50;4970284;28;102169;-85
2022/09/20 00:19:06;;;;;;;;;5.67;5.00;;;;;17.58;54.50;98181.03;4975479;28;102394;-85
2022/09/20 00:21:35;;;;;;;;;7.00;6.00;;;;;17.57;54.81;98198.50;4967153;28;102336;-85
2022/09/20 00:24:02;;;;;;;;;6.00;5.00;;;;;17.57;54.95;98191.13;4966886;28;102064;-84
2022/09/20 00:26:29;;;;;;;;;6.67;5.67;;;;;17.56;54.58;98194.94;4975541;28;103412;-84
2022/09/20 00:28:56;;;;;;;;;5.67;5.33;;;;;17.56;55.04;98189.47;4977244;28;102362;-84
2022/09/20 00:31:23;;;;;;;;;6.33;5.33;;;;;17.56;54.44;98189.47;4976641;28;103436;-84
2022/09/20 00:36:39;;;;;;;;;5.33;5.33;;;;;17.52;53.96;98188.34;4977362;28;101820;-84
2022/09/20 00:39:06;;;;;;;;;9.00;8.00;;;;;17.53;54.64;98192.72;4969277;28;101948;-85
2022/09/20 00:41:33;;;;;;;;;4.67;4.67;;;;;17.51;55.17;98200.38;4977777;28;103400;-84
2022/09/20 00:44:00;;;;;;;;;5.33;5.33;;;;;17.49;54.79;98197.06;4987780;28;102226;-85
2022/09/20 00:46:28;;;;;;;;;7.00;6.00;;;;;17.51;54.88;98200.38;4979207;28;102009;-85
2022/09/20 00:48:59;;;;;;;;;5.67;5.67;;;;;17.53;54.01;98200.09;4977894;28;101939;-85
2022/09/20 00:51:31;;;;;;;;;6.00;5.00;;;;;17.51;54.29;98189.44;4975144;28;103418;-85
2022/09/20 00:53:59;;;;;;;;;6.00;5.67;;;;;17.52;54.54;98182.03;4975207;28;102748;-85
2022/09/20 00:56:28;;;;;;;;;5.67;5.33;;;;;17.52;54.48;98202.00;4976991;28;102037;-85
2022/09/20 00:59:16;;;;;;;;;5.33;5.00;;;;;17.51;54.04;98200.38;4970798;28;101974;-85
2022/09/20 01:01:45;;;;;;;;;4.67;4.67;;;;;17.52;54.30;98204.75;4975855;28;105162;-85
2022/09/20 01:04:13;;;;;;;;;5.00;5.00;;;;;17.53;55.07;98205.56;4980760;28;102187;-85
2022/09/20 01:06:40;;;;;;;;;5.67;5.67;;;;;17.50;54.34;98196.00;4976706;28;102230;-85
2022/09/20 01:09:15;;;;;;;;;4.67;4.67;;;;;17.52;54.58;98202.00;4957130;28;102106;-85
2022/09/20 01:11:57;;;;;;;;;5.33;5.00;;;;;17.50;54.81;98197.88;4983138;28;109862;-85
2022/09/20 01:14:48;;;;;;;;;7.00;7.00;;;;;17.50;54.80;98206.91;4961236;28;102003;-85
2022/09/20 01:17:38;;;;;;;;;8.00;6.00;;;;;17.49;54.89;98199.78;4972287;28;102234;-84
2022/09/20 01:20:28;;;;;;;;;7.00;7.00;;;;;17.46;54.50;98199.50;4963505;28;102141;-84
2022/09/20 01:23:36;;;;;;;;;7.33;7.00;;;;;17.49;55.24;98202.53;4941810;28;108331;-85
2022/09/20 01:26:21;;;;;;;;;6.33;5.33;;;;;17.48;54.88;98202.78;4976637;28;101850;-84
2022/09/20 01:28:49;;;;;;;;;4.67;4.67;;;;;17.46;54.44;98205.78;4974309;28;102168;-85
2022/09/20 01:31:32;;;;;;;;;6.00;6.00;;;;;17.46;54.66;98205.78;4979145;28;102093;-85
2022/09/20 01:34:00;;;;;;;;;4.67;4.00;;;;;17.47;54.08;98207.41;4968373;28;108158;-84
2022/09/20 01:36:38;;;;;;;;;5.33;5.00;;;;;17.45;54.76;98212.31;4969048;28;101874;-84
2022/09/20 01:39:18;;;;;;;;;4.00;4.00;;;;;17.47;54.33;98210.16;4957992;28;101966;-85
2022/09/20 01:42:06;;;;;;;;;5.00;4.33;;;;;17.47;54.50;98204.69;4976999;28;102042;-85
2022/09/20 01:44:45;;;;;;;;;5.00;4.00;;;;;17.47;54.24;98212.88;4968170;28;108137;-85
2022/09/20 01:47:34;;;;;;;;;4.67;4.67;;;;;17.49;54.28;98210.72;4977096;28;102124;-85
2022/09/20 01:50:29;;;;;;;;;6.33;6.33;;;;;17.48;54.20;98210.97;4988613;28;102088;-84
2022/09/20 01:53:17;;;;;;;;;5.00;5.00;;;;;17.46;54.20;98203.06;4955203;28;102241;-85
2022/09/20 01:56:01;;;;;;;;;5.00;5.00;;;;;17.47;54.82;98218.34;4970295;28;103425;-85
2022/09/20 01:59:07;;;;;;;;;5.00;5.00;;;;;17.47;54.76;98218.34;4972610;28;101889;-85
2022/09/20 02:01:53;;;;;;;;;4.67;4.00;;;;;17.46;55.00;98221.34;4972067;28;102026;-85
2022/09/20 02:04:39;;;;;;;;;5.00;5.00;;;;;17.44;54.99;98216.13;4976121;28;101878;-85
2022/09/20 02:07:24;;;;;;;;;4.67;4.67;;;;;17.40;54.96;98201.31;4973003;28;109608;-84
2022/09/20 02:10:14;;;;;;;;;5.00;4.00;;;;;17.43;55.06;98214.47;4967145;28;102790;-85
2022/09/20 02:13:03;;;;;;;;;5.67;5.00;;;;;17.40;55.07;98204.06;4976949;28;102185;-84
2022/09/20 02:15:45;;;;;;;;;4.00;4.00;;;;;17.40;54.41;98202.16;4972923;28;102246;-85
2022/09/20 02:18:30;;;;;;;;;6.00;6.00;;;;;17.41;54.49;98208.44;4975533;28;103478;-85
2022/09/20 02:21:04;;;;;;;;;6.00;6.00;;;;;17.42;54.52;98221.03;4977821;28;101826;-84
2022/09/20 02:23:40;;;;;;;;;5.00;5.00;;;;;17.42;54.37;98215.56;4973732;28;102080;-84
2022/09/20 02:26:12;;;;;;;;;8.00;6.33;;;;;17.44;54.10;98209.84;4972339;28;102873;-85
2022/09/20 02:29:11;;;;;;;;;4.00;4.00;;;;;17.44;54.76;98218.03;4974888;28;103672;-84
2022/09/20 02:31:59;;;;;;;;;5.00;5.00;;;;;17.43;54.68;98217.19;4962306;28;101980;-84
2022/09/20 02:34:42;;;;;;;;;4.00;4.00;;;;;17.42;54.79;98212.84;4946996;28;101693;-85
2022/09/20 02:37:24;;;;;;;;;4.67;3.33;;;;;17.42;54.83;98220.22;4962274;28;102211;-85
2022/09/20 02:39:57;;;;;;;;;4.00;4.00;;;;;17.42;54.08;98220.22;4970940;28;109881;-85
2022/09/20 02:42:28;;;;;;;;;3.00;3.00;;;;;17.42;54.62;98225.69;4969685;28;101729;-85
2022/09/20 02:45:33;;;;;;;;;4.00;4.00;;;;;17.42;54.95;98221.03;4970198;28;102023;-85
2022/09/20 02:48:03;;;;;;;;;3.00;3.00;;;;;17.35;54.78;98217.66;4969425;28;102052;-85
2022/09/20 02:50:48;;;;;;;;;5.00;5.00;;;;;17.38;54.29;98222.63;4957317;28;103452;-86
2022/09/20 02:53:36;;;;;;;;;3.33;3.00;;;;;17.38;53.97;98228.09;4951288;28;101706;-85
2022/09/20 02:56:11;;;;;;;;;3.00;3.00;;;;;17.37;54.92;98224.53;4969413;28;102125;-85
2022/09/20 02:59:17;;;;;;;;;4.00;4.00;;;;;17.37;54.97;98226.44;4974262;28;102441;-85
2022/09/20 03:02:03;;;;;;;;;3.00;3.00;;;;;17.38;54.46;98219.91;4965255;28;108387;-85
2022/09/20 03:04:42;;;;;;;;;4.00;4.00;;;;;17.38;54.30;98230.84;4974906;28;101819;-85
2022/09/20 03:07:29;;;;;;;;;5.00;4.00;;;;;17.39;53.88;98232.47;4973791;28;101997;-85
2022/09/20 03:10:19;;;;;;;;;4.00;4.00;;;;;17.38;54.54;98230.84;4964907;28;101874;-85
2022/09/20 03:13:00;;;;;;;;;4.00;4.00;;;;;17.34;54.88;98218.72;4973352;28;103053;-85
2022/09/20 03:15:30;;;;;;;;;2.67;2.67;;;;;17.39;54.69;98235.19;4972786;28;102036;-84
2022/09/20 03:18:16;;;;;;;;;3.67;3.67;;;;;17.38;53.90;98231.63;4982107;28;101720;-84
2022/09/20 03:20:47;;;;;;;;;4.67;4.67;;;;;17.39;54.00;98232.47;4972218;28;102111;-85
2022/09/20 03:23:48;;;;;;;;;3.00;3.00;;;;;17.38;54.52;98236.31;4971980;28;103330;-85
2022/09/20 03:26:39;;;;;;;;;5.00;5.00;;;;;17.38;54.80;98239.03;4969544;28;101966;-85
2022/09/20 03:29:37;;;;;;;;;3.33;3.33;;;;;17.32;54.51;98226.38;4972758;28;102056;-85
2022/09/20 03:32:42;;;;;;;;;5.00;4.67;;;;;17.35;54.61;98243.09;4947731;28;102080;-85
2022/09/20 03:35:26;;;;;;;;;2.00;2.00;;;;;17.34;54.54;98241.41;4976185;28;108161;-86
2022/09/20 03:38:01;;;;;;;;;3.67;3.00;;;;;17.34;54.47;98254.25;4978162;28;101696;-85
2022/09/20 03:40:37;;;;;;;;;5.00;4.33;;;;;17.33;54.87;98250.72;4968099;28;101882;-85
2022/09/20 03:43:46;;;;;;;;;5.00;4.00;;;;;17.34;54.79;98249.63;4973303;28;102115;-85
2022/09/20 03:46:19;;;;;;;;;1.67;1.67;;;;;17.33;54.66;98247.16;4934462;28;107876;-85
2022/09/20 03:49:01;;;;;;;;;3.33;3.33;;;;;17.35;55.05;98255.91;4971316;28;102029;-85
2022/09/20 03:51:28;;;;;;;;;4.67;4.00;;;;;17.35;53.93;98259.47;4974437;28;101823;-85
2022/09/20 03:54:38;;;;;;;;;5.33;5.33;;;;;17.36;54.20;98261.13;4968041;28;102149;-85
2022/09/20 03:57:33;;;;;;;;;4.00;4.00;;;;;17.35;54.32;98255.91;4961490;28;108081;-85
2022/09/20 04:00:08;;;;;;;;;3.00;3.00;;;;;17.36;54.71;98263.88;4982355;28;102140;-85
2022/09/20 04:03:08;;;;;;;;;3.33;3.33;;;;;17.35;54.58;98269.59;4980271;28;102044;-85
2022/09/20 04:05:35;;;;;;;;;5.00;5.00;;;;;17.35;54.75;98269.59;4978686;28;102546;-86
2022/09/20 04:08:12;;;;;;;;;2.00;2.00;;;;;17.33;54.13;98267.13;4980540;28;103746;-85
2022/09/20 04:10:51;;;;;;;;;5.00;4.00;;;;;17.34;55.15;98267.91;4972176;28;101946;-85
2022/09/20 04:13:30;;;;;;;;;4.00;4.00;;;;;17.32;54.81;98264.63;4970793;28;101762;-85
2022/09/20 04:16:09;;;;;;;;;5.67;4.00;;;;;17.31;54.83;98282.09;4979094;28;101847;-84
2022/09/20 04:18:57;;;;;;;;;5.00;4.00;;;;;17.31;54.80;98271.16;4978797;28;103397;-85
2022/09/20 04:21:34;;;;;;;;;3.67;3.00;;;;;17.31;54.82;98284.84;4953674;28;101996;-85
2022/09/20 04:24:01;;;;;;;;;4.33;4.00;;;;;17.29;55.05;98276.06;4976954;28;102090;-85
2022/09/20 04:26:30;;;;;;;;;5.67;5.00;;;;;17.29;54.24;98281.53;4973421;28;101787;-85
2022/09/20 04:29:30;;;;;;;;;3.00;3.00;;;;;17.29;54.33;98289.75;4977180;28;103392;-85
2022/09/20 04:32:02;;;;;;;;;4.33;2.67;;;;;17.29;54.32;98282.34;4967075;28;102508;-85
2022/09/20 04:37:34;;;;;;;;;4.00;3.33;;;;;17.32;54.12;98286.50;4962850;28;102680;-86
2022/09/20 04:40:15;;;;;;;;;4.00;3.67;;;;;17.33;54.58;98282.69;4948889;28;110677;-85
2022/09/20 04:43:06;;;;;;;;;5.00;5.00;;;;;17.32;54.08;98284.59;4969107;28;102147;-85
2022/09/20 04:45:53;;;;;;;;;4.00;3.00;;;;;17.33;54.03;98283.53;4981046;28;101937;-85
2022/09/20 04:49:05;;;;;;;;;4.00;4.00;;;;;17.32;54.56;98286.50;4977415;28;102214;-85
2022/09/20 04:52:06;;;;;;;;;4.00;3.33;;;;;17.31;54.23;98284.84;4955473;28;108037;-85
2022/09/20 04:54:57;;;;;;;;;3.00;3.00;;;;;17.32;54.05;98286.50;4977736;28;101999;-86
2022/09/20 04:57:53;;;;;;;;;5.00;5.00;;;;;17.30;54.19;98288.63;4975043;28;102900;-85
2022/09/20 05:00:23;;;;;;;;;3.00;3.00;;;;;17.29;55.13;98296.00;4977679;28;101856;-86
2022/09/20 05:03:11;;;;;;;;;4.67;3.00;;;;;17.28;53.73;98294.38;4947598;28;103394;-86
2022/09/20 05:05:41;;;;;;;;;4.00;4.00;;;;;17.28;54.70;98291.63;4974439;28;102708;-85
2022/09/20 05:08:26;;;;;;;;;4.00;4.00;;;;;17.28;54.09;98301.75;4977349;28;101623;-85
2022/09/20 05:11:00;;;;;;;;;3.67;3.33;;;;;17.26;54.75;98299.25;4977449;28;102275;-85
2022/09/20 05:13:36;;;;;;;;;3.00;3.00;;;;;17.27;53.78;98306.38;4977584;28;108104;-86
2022/09/20 05:16:07;;;;;;;;;3.00;3.00;;;;;17.27;54.14;98305.53;4976293;28;102031;-85
2022/09/20 05:18:50;;;;;;;;;6.33;4.00;;;;;17.28;54.38;98313.50;4962389;28;102208;-85
2022/09/20 05:21:17;;;;;;;;;3.00;3.00;;;;;17.27;54.16;98316.47;4978771;28;102166;-86
2022/09/20 05:24:22;;;;;;;;;3.33;3.33;;;;;17.26;54.41;98315.66;4975515;28;103344;-85
2022/09/20 05:27:21;;;;;;;;;4.67;4.00;;;;;17.30;54.20;98313.22;4923874;28;101776;-85
2022/09/20 05:30:05;;;;;;;;;3.00;3.00;;;;;17.28;54.53;98312.69;4975275;28;102401;-86
2022/09/20 05:33:11;;;;;;;;;3.00;3.00;;;;;17.29;54.19;98323.34;4962193;28;101953;-86
2022/09/20 05:35:42;;;;;;;;;3.00;3.00;;;;;17.30;54.21;98326.91;4967803;28;108100;-85
2022/09/20 05:38:29;;;;;;;;;4.00;4.00;;;;;17.22;54.34;98310.94;4980067;28;102110;-86
2022/09/20 05:41:33;;;;;;;;;4.00;3.00;;;;;17.29;54.36;98325.25;4951530;28;102618;-85
2022/09/20 05:44:03;;;;;;;;;4.00;3.67;;;;;17.27;54.75;98330.97;4974174;28;101862;-85
2022/09/20 05:46:52;;;;;;;;;3.00;3.00;;;;;17.26;54.78;98320.28;4968366;28;103436;-85
2022/09/20 05:49:34;;;;;;;;;3.67;3.67;;;;;17.24;54.89;98330.66;4976898;28;101760;-86
2022/09/20 05:52:38;;;;;;;;;5.67;4.67;;;;;17.25;54.65;98330.38;4969830;28;104144;-85
2022/09/20 05:55:05;;;;;;;;;7.00;4.00;;;;;17.25;54.74;98335.00;4972332;28;102342;-86
2022/09/20 05:57:32;;;;;;;;;2.00;2.00;;;;;17.25;54.39;98332.28;4979616;28;103234;-85
2022/09/20 06:00:12;;;;;;;;;3.00;3.00;;;;;17.26;54.39;98336.69;4966174;28;101858;-86
2022/09/20 06:03:00;;;;;;;;;4.33;4.00;;;;;17.21;54.01;98322.94;4959042;28;101862;-86
2022/09/20 06:05:45;;;;;;;;;3.00;3.00;;;;;17.26;53.96;98339.41;4977531;28;102111;-86
2022/09/20 06:08:24;;;;;;;;;2.00;2.00;;;;;17.28;54.22;98340.00;4975449;28;103414;-86
2022/09/20 06:10:59;;;;;;;;;3.00;2.33;;;;;17.27;54.16;98346.53;4983904;28;101815;-85
2022/09/20 06:13:44;;;;;;;;;3.00;3.00;;;;;17.30;54.19;98344.13;4974304;28;102085;-86
2022/09/20 06:16:16;;;;;;;;;3.33;3.00;;;;;17.30;54.12;98349.59;4972922;28;101784;-86
2022/09/20 06:19:09;;;;;;;;;4.00;3.00;;;;;17.32;54.04;98352.09;4959618;28;103743;-86
2022/09/20 06:21:51;;;;;;;;;3.00;2.67;;;;;17.31;54.10;98351.25;4955853;28;102166;-86
2022/09/20 06:24:59;;;;;;;;;3.00;3.00;;;;;17.28;53.87;98340.84;4981983;28;101913;-85
2022/09/20 06:27:32;;;;;;;;;4.00;3.00;;;;;17.29;54.34;98352.59;4976022;28;102072;-83
2022/09/20 06:30:03;;;;;;;;;5.67;4.00;;;;;17.26;54.43;98358.53;4970487;28;103529;-85
2022/09/20 06:32:33;;;;;;;;;2.67;2.00;;;;;17.26;54.49;98348.44;4986356;28;102090;-85
2022/09/20 06:35:01;;;;;;;;;3.00;3.00;;;;;17.26;54.33;98350.34;4971131;28;101774;-86
2022/09/20 06:43:30;;;;;;;;;3.00;3.00;;;;;17.22;54.72;98363.69;4957584;28;102071;-85
2022/09/20 06:45:57;;;;;;;;;4.67;3.00;;;;;17.25;54.12;98363.19;4972274;28;102028;-85
2022/09/20 06:48:24;;;;;;;;;2.00;2.00;;;;;17.26;54.25;98353.06;4947023;28;101933;-86
2022/09/20 06:50:51;;;;;;;;;2.00;2.00;;;;;17.25;54.24;98367.81;4981740;28;109328;-86
2022/09/20 06:53:30;;;;;;;;;3.33;3.33;;;;;17.26;54.46;98370.31;4977895;28;101911;-86
2022/09/20 06:55:57;;;;;;;;;2.00;2.00;;;;;17.26;54.13;98373.03;4971254;28;101991;-85
2022/09/20 06:58:24;;;;;;;;;2.00;2.00;;;;;17.28;53.85;98373.63;4973615;28;101854;-86
2022/09/20 07:00:52;;;;;;;;;3.00;3.00;;;;;17.30;53.95;98370.63;4977361;28;103240;-86
2022/09/20 07:03:19;;;;;;;;;3.00;3.00;;;;;17.28;54.19;98384.56;4977426;28;101815;-86
2022/09/20 07:05:46;;;;;;;;;4.00;3.00;;;;;17.30;54.96;98381.56;4975685;28;102113;-86
2022/09/20 07:08:13;;;;;;;;;2.00;2.00;;;;;17.31;53.69;98385.94;4975926;28;101937;-85
2022/09/20 07:10:40;;;;;;;;;4.00;4.00;;;;;17.26;54.95;98383.97;4974137;28;103665;-86
2022/09/20 07:13:10;;;;;;;;;3.00;3.00;;;;;17.27;54.52;98382.06;4979939;28;101745;-86
2022/09/20 07:15:37;;;;;;;;;4.33;3.00;;;;;17.27;54.13;98393.81;4970780;28;102624;-86
2022/09/20 07:18:04;;;;;;;;;4.00;3.00;;;;;17.28;53.91;98402.84;4975748;28;102172;-86
2022/09/20 07:20:31;;;;;;;;;3.00;3.00;;;;;17.27;53.83;98395.72;4971620;28;103661;-85
2022/09/20 07:22:58;;;;;;;;;2.33;2.00;;;;;17.23;54.50;98400.03;4976180;28;101827;-85
2022/09/20 07:25:25;;;;;;;;;3.00;2.67;;;;;17.20;54.04;98395.09;4961256;28;102152;-85
2022/09/20 07:27:52;;;;;;;;;3.00;3.00;;;;;17.27;54.61;98409.38;4973880;28;101928;-86
2022/09/20 07:30:19;;;;;;;;;3.67;3.00;;;;;17.28;54.36;98414.63;4999194;28;103390;-85
2022/09/20 07:32:46;;;;;;;;;3.00;3.00;;;;;17.27;54.09;98409.38;4967615;28;101843;-85
2022/09/20 07:35:14;;;;;;;;;2.00;2.00;;;;;17.29;54.02;98407.25;4964697;28;102104;-86
2022/09/20 07:37:41;;;;;;;;;3.67;3.67;;;;;17.26;54.20;98408.56;4974370;28;102177;-86
2022/09/20 07:40:09;;;;;;;;;3.00;2.67;;;;;17.29;54.88;98421.72;4980183;28;102916;-85
2022/09/20 07:42:36;;;;;;;;;3.33;3.33;;;;;17.30;54.32;98408.88;4976821;28;109728;-86
2022/09/20 07:45:04;;;;;;;;;2.00;2.00;;;;;17.30;54.19;98420.66;4973197;28;101975;-86
2022/09/20 07:47:34;;;;;;;;;4.00;2.67;;;;;17.31;54.13;98418.75;4971857;28;101884;-86
2022/09/20 07:50:02;;;;;;;;;3.00;3.00;;;;;17.30;54.39;98422.53;4965699;28;103516;-86
2022/09/20 07:52:29;;;;;;;;;4.67;3.00;;;;;17.33;54.86;98424.81;4970617;28;102080;-86
2022/09/20 07:54:56;;;;;;;;;3.67;3.67;;;;;17.32;54.10;98428.59;4972163;28;102116;-86
2022/09/20 07:57:23;;;;;;;;;3.00;3.00;;;;;17.31;54.12;98424.22;4976919;28;101765;-86
2022/09/20 07:59:50;;;;;;;;;2.00;2.00;;;;;17.32;54.32;98425.88;4977991;28;103399;-86
2022/09/20 08:02:17;;;;;;;;;2.00;2.00;;;;;17.29;53.98;98423.66;4966550;28;101667;-86
2022/09/20 08:04:44;;;;;;;;;2.00;2.00;;;;;17.31;54.75;98433.25;4974153;28;102193;-86
2022/09/20 08:07:11;;;;;;;;;4.33;3.33;;;;;17.26;54.56;98432.31;4975119;28;102244;-86
2022/09/20 08:09:38;;;;;;;;;2.00;2.00;;;;;17.26;54.10;98429.59;4984718;28;103186;-86
2022/09/20 08:12:07;;;;;;;;;2.33;2.00;;;;;17.28;54.55;98438.38;4973249;28;102817;-86
2022/09/20 08:14:54;;;;;;;;;2.33;2.33;;;;;17.28;54.31;98439.22;4983859;28;102089;-86
2022/09/20 08:17:21;;;;;;;;;1.67;1.67;;;;;17.31;53.58;98443.34;4975240;28;102163;-86
2022/09/20 08:19:49;;;;;;;;;3.33;2.00;;;;;17.31;54.24;98441.44;4975687;28;103253;-86
2022/09/20 08:22:16;;;;;;;;;2.00;2.00;;;;;17.29;53.51;98440.03;4971111;28;101659;-86
2022/09/20 08:24:43;;;;;;;;;2.00;2.00;;;;;17.31;54.47;98440.59;4979953;28;102151;-86
2022/09/20 08:27:10;;;;;;;;;2.33;2.00;;;;;17.30;54.72;98447.16;4973779;28;102247;-86
2022/09/20 08:29:37;;;;;;;;;2.00;2.00;;;;;17.33;53.94;98446.66;4973232;28;103232;-86
2022/09/20 08:32:04;;;;;;;;;3.00;2.00;;;;;17.33;54.44;98438.47;4971009;28;101872;-86
2022/09/20 08:34:31;;;;;;;;;3.33;3.00;;;;;17.34;54.44;98442.84;4973605;28;101646;-86
2022/09/20 08:36:58;;;;;;;;;2.33;2.33;;;;;17.33;53.74;98449.41;4980800;28;102204;-86
2022/09/20 08:39:26;;;;;;;;;2.33;2.00;;;;;17.34;54.04;98442.84;4977072;28;103372;-86
2022/09/20 08:42:22;;;;;;;;;2.00;2.00;;;;;17.34;54.22;98449.13;4966148;28;101876;-85
2022/09/20 08:44:52;;;;;;;;;3.00;3.00;;;;;17.33;54.08;98452.13;4970634;28;102023;-86
2022/09/20 08:47:53;;;;;;;;;3.00;3.00;;;;;17.24;54.68;98435.31;4962383;28;102064;-86
2022/09/20 08:50:24;;;;;;;;;3.00;3.00;;;;;17.32;54.23;98453.19;4974144;28;107820;-86
2022/09/20 08:52:54;;;;;;;;;2.67;2.67;;;;;17.27;53.76;98453.13;4960839;28;102192;-86
2022/09/20 08:55:30;;;;;;;;;3.00;3.00;;;;;17.33;54.11;98441.19;4973339;28;101863;-86
2022/09/20 08:58:02;;;;;;;;;2.67;2.00;;;;;17.33;53.81;98455.69;4953101;28;102168;-86
2022/09/20 09:00:35;;;;;;;;;3.00;3.00;;;;;17.33;53.94;98452.13;4971379;28;104025;-86
2022/09/20 09:03:12;;;;;;;;;3.00;3.00;;;;;17.35;54.66;98460.91;4961621;28;101907;-86
2022/09/20 09:05:49;;;;;;;;;4.00;2.33;;;;;17.36;54.50;98462.56;4978367;28;102134;-86
2022/09/20 09:08:18;;;;;;;;;3.33;3.00;;;;;17.36;54.30;98451.63;4971944;28;102075;-86
2022/09/20 09:10:53;;;;;;;;;2.00;2.00;;;;;17.35;54.22;98458.16;4982353;28;103519;-86
2022/09/20 09:13:44;;;;;;;;;2.33;2.00;;;;;17.32;54.00;98453.19;4963769;28;102080;-86
2022/09/20 09:16:14;;;;;;;;;3.00;3.00;;;;;17.35;54.23;98450.78;4966507;28;102001;-86
2022/09/20 09:18:50;;;;;;;;;3.00;3.00;;;;;17.35;54.37;98459.00;4969913;28;104140;-86
2022/09/20 09:21:24;;;;;;;;;2.00;2.00;;;;;17.33;54.30;98452.13;4967554;28;103397;-86
2022/09/20 09:24:17;;;;;;;;;4.00;3.00;;;;;17.36;53.88;98457.09;4982499;28;102203;-86
2022/09/20 09:26:45;;;;;;;;;3.00;3.00;;;;;17.36;54.72;98448.91;4952514;28;102153;-86
2022/09/20 09:29:22;;;;;;;;;2.00;2.00;;;;;17.33;53.74;98450.22;4975069;28;102184;-86
2022/09/20 09:31:50;;;;;;;;;2.33;2.00;;;;;17.34;53.33;98448.31;4969990;28;103753;-86
2022/09/20 09:34:28;;;;;;;;;2.67;2.67;;;;;17.36;54.11;98462.56;4981935;28;103147;-86
2022/09/20 09:36:55;;;;;;;;;2.00;2.00;;;;;17.34;53.93;98453.78;4967031;28;101921;-86
2022/09/20 09:39:26;;;;;;;;;2.33;2.33;;;;;17.36;54.49;98457.09;4997022;28;102395;-86
2022/09/20 09:41:53;;;;;;;;;2.33;2.33;;;;;17.32;54.36;98455.94;4991476;28;107890;-86
2022/09/20 09:44:26;;;;;;;;;2.00;2.00;;;;;17.29;53.86;98443.56;4979834;28;102001;-86
2022/09/20 09:46:54;;;;;;;;;2.67;2.67;;;;;17.36;54.02;98459.81;4986892;28;102117;-86
2022/09/20 09:49:21;;;;;;;;;2.67;2.00;;;;;17.36;54.26;98451.63;4960316;28;101882;-86
2022/09/20 09:52:11;;;;;;;;;3.67;2.00;;;;;17.36;53.70;98462.56;4972974;28;103535;-85
2022/09/20 09:55:00;;;;;;;;;2.33;2.00;;;;;17.34;54.19;98451.88;4966660;28;101784;-86
2022/09/20 09:57:58;;;;;;;;;3.00;3.00;;;;;17.36;53.72;98452.47;4972916;28;102108;-87
2022/09/20 10:00:26;;;;;;;;;2.33;2.33;;;;;17.32;54.07;98450.47;4979419;28;101954;-86
2022/09/20 10:03:16;;;;;;;;;2.00;2.00;;;;;17.35;54.03;98450.78;4950577;28;109229;-86
2022/09/20 10:05:58;;;;;;;;;2.67;2.67;;;;;17.37;54.09;98450.56;4974946;28;101893;-86
2022/09/20 10:08:34;;;;;;;;;2.33;2.33;;;;;17.30;53.77;98441.69;4982353;28;102120;-86
2022/09/20 10:11:19;;;;;;;;;2.67;2.67;;;;;17.35;53.78;98444.50;4976655;28;101836;-86
2022/09/20 10:13:56;;;;;;;;;3.00;3.00;;;;;17.36;54.74;98443.44;4979185;28;103393;-86
2022/09/20 10:16:55;;;;;;;;;1.67;1.67;;;;;17.36;53.36;98447.00;4972956;28;101732;-86
2022/09/20 10:19:41;;;;;;;;;2.00;2.00;;;;;17.36;54.04;98455.19;4966604;28;102081;-86
2022/09/20 10:22:45;;;;;;;;;2.00;2.00;;;;;17.36;53.95;98451.63;4979342;28;102077;-86
2022/09/20 10:26:03;;;;;;;;;3.00;2.00;;;;;17.37;54.18;98453.28;4972806;28;109358;-86
2022/09/20 10:28:51;;;;;;;;;5.00;3.00;;;;;17.36;53.50;98451.63;4975530;28;101905;-86
2022/09/20 10:31:44;;;;;;;;;1.67;1.67;;;;;17.38;54.42;98452.22;4968902;28;102022;-86
2022/09/20 10:34:53;;;;;;;;;2.00;2.00;;;;;17.37;54.75;98448.66;4975020;28;101815;-86
2022/09/20 10:37:36;;;;;;;;;2.00;2.00;;;;;17.38;54.53;98452.22;4910723;28;107279;-86
2022/09/20 10:40:15;;;;;;;;;2.00;2.00;;;;;17.38;53.67;98444.81;4971083;28;102160;-85
2022/09/20 10:45:37;;;;;;;;;3.00;3.00;;;;;17.39;54.38;98448.38;4980525;28;102233;-86
2022/09/20 10:48:31;;;;;;;;;2.00;2.00;;;;;17.36;54.57;98436.06;4973093;28;109601;-86
2022/09/20 10:50:59;;;;;;;;;2.00;2.00;;;;;17.38;53.96;98444.03;4979529;28;102170;-86
2022/09/20 10:53:51;;;;;;;;;2.00;2.00;;;;;17.39;54.32;98441.03;4969543;28;102504;-86
2022/09/20 10:56:30;;;;;;;;;2.00;2.00;;;;;17.38;53.91;98430.34;4981540;28;103714;-86
2022/09/20 10:59:31;;;;;;;;;3.00;3.00;;;;;17.40;54.59;98434.47;4979713;28;108035;-86
2022/09/20 11:02:23;;;;;;;;;3.00;3.00;;;;;17.36;54.04;98432.50;4972410;28;104539;-86
2022/09/20 11:05:25;;;;;;;;;2.67;2.67;;;;;17.42;54.60;98445.97;4968970;28;101841;-86
2022/09/20 11:08:02;;;;;;;;;3.00;3.00;;;;;17.41;53.92;98454.44;4983107;28;101843;-86
2022/09/20 11:10:35;;;;;;;;;3.67;3.00;;;;;17.42;53.42;98461.59;4990859;28;107903;-86
2022/09/20 11:13:09;;;;;;;;;2.33;2.00;;;;;17.42;53.86;98461.59;4971191;28;101990;-86
2022/09/20 11:15:40;;;;;;;;;2.67;2.67;;;;;17.42;53.96;98449.81;4975672;28;101841;-86
2022/09/20 11:18:13;;;;;;;;;2.00;2.00;;;;;17.39;53.46;98441.03;4977282;28;101786;-86
2022/09/20 11:20:48;;;;;;;;;4.33;3.00;;;;;17.43;53.74;98452.28;4969413;28;103161;-86
2022/09/20 11:23:24;;;;;;;;;2.00;2.00;;;;;17.42;54.32;98451.44;4978606;28;101773;-86
2022/09/20 11:25:55;;;;;;;;;2.67;2.67;;;;;17.42;53.92;98451.44;4973911;28;102044;-86
2022/09/20 11:28:29;;;;;;;;;3.00;3.00;;;;;17.39;54.67;98454.69;4964669;28;102008;-86
2022/09/20 11:31:21;;;;;;;;;2.33;2.33;;;;;17.42;53.87;98461.59;4945634;28;108205;-86
2022/09/20 11:33:51;;;;;;;;;2.00;2.00;;;;;17.42;54.67;98454.19;4981400;28;101759;-86
2022/09/20 11:36:33;;;;;;;;;2.00;2.00;;;;;17.40;53.93;98459.09;4997086;28;102433;-86
2022/09/20 11:39:03;;;;;;;;;3.00;3.00;;;;;17.41;53.85;98470.84;4985975;28;102065;-86
2022/09/20 11:41:33;;;;;;;;;2.00;2.00;;;;;17.42;53.84;98456.13;4949640;28;102402;-86
2022/09/20 11:44:03;;;;;;;;;1.33;1.33;;;;;17.40;54.69;98452.78;4974502;28;102121;-86
2022/09/20 11:46:37;;;;;;;;;2.00;2.00;;;;;17.42;54.14;98451.44;4952758;28;101882;-86
2022/09/20 11:49:14;;;;;;;;;1.00;1.00;;;;;17.40;54.55;98450.88;4981845;28;102560;-86
2022/09/20 11:51:59;;;;;;;;;3.00;2.00;;;;;17.45;53.79;98455.59;4984449;28;103674;-87
2022/09/20 11:54:41;;;;;;;;;3.00;2.00;;;;;17.41;54.18;98427.13;4977683;28;102104;-86
2022/09/20 11:57:12;;;;;;;;;2.33;1.67;;;;;17.45;53.86;98447.41;4967993;28;102256;-86
2022/09/20 11:59:40;;;;;;;;;2.00;2.00;;;;;17.46;53.29;98446.34;4967155;28;101917;-86
2022/09/20 12:02:32;;;;;;;;;1.67;1.67;;;;;17.48;53.97;98448.78;4955170;28;103217;-86
2022/09/20 12:05:00;;;;;;;;;1.67;1.67;;;;;17.50;53.92;98450.22;4972684;28;101957;-86
2022/09/20 12:07:36;;;;;;;;;2.00;2.00;;;;;17.47;54.20;98447.97;4978520;28;102391;-86
2022/09/20 12:10:20;;;;;;;;;1.67;1.67;;;;;17.53;54.03;98448.88;4973063;28;102153;-85
2022/09/20 12:12:49;;;;;;;;;2.00;2.00;;;;;17.52;54.21;98437.13;4947893;28;103495;-86
2022/09/20 12:15:33;;;;;;;;;2.00;2.00;;;;;17.56;54.06;98440.19;4978557;28;102861;-85
2022/09/20 12:18:11;;;;;;;;;2.67;2.00;;;;;17.54;53.73;98440.44;4974441;28;102072;-85
2022/09/20 12:20:38;;;;;;;;;1.00;1.00;;;;;17.59;54.62;98440.56;4980039;28;103149;-86
2022/09/20 12:23:39;;;;;;;;;2.33;2.33;;;;;17.61;53.92;98440.28;4979654;28;103634;-86
2022/09/20 12:26:21;;;;;;;;;1.67;1.67;;;;;17.62;53.62;98431.84;4981903;28;101865;-85
2022/09/20 12:28:52;;;;;;;;;2.00;2.00;;;;;17.57;54.04;98417.22;4970517;28;101974;-86
2022/09/20 12:31:27;;;;;;;;;2.00;2.00;;;;;17.65;53.94;98431.34;4973380;28;102004;-85